Time;durP1;ratioP1;P1;durP2;ratioP2;P2;SDS_P1;SDS_P2;PMS_P1;PMS_P2;Temp;Humidity;BMP_temperature;BMP_pressure;BME280_temperature;BME280_humidity;BME280_pressure;Samples;Min_cycle;Max_cycle;Signal;HPM_P1;HPM_P2
2023/06/27 00:01:49;;;;;;;4.45;2.03;;;19.70;55.80;;;;;;5016289;28;20045;-61
2023/06/27 00:04:16;;;;;;;4.32;1.77;;;19.60;55.80;;;;;;5013782;28;20057;-61
2023/06/27 00:06:43;;;;;;;5.63;1.70;;;19.60;56.00;;;;;;5012347;28;20064;-61
2023/06/27 00:09:11;;;;;;;3.92;1.67;;;19.50;56.30;;;;;;5014384;28;20045;-61
2023/06/27 00:11:39;;;;;;;5.87;1.90;;;19.40;56.50;;;;;;5013033;28;20473;-61
2023/06/27 00:14:08;;;;;;;3.47;1.63;;;19.40;56.50;;;;;;5012230;28;20076;-61
2023/06/27 00:16:35;;;;;;;3.78;1.38;;;19.30;56.50;;;;;;5012723;28;20088;-62
2023/06/27 00:19:04;;;;;;;6.55;1.60;;;19.30;56.80;;;;;;5012781;28;20061;-61
2023/06/27 00:21:31;;;;;;;3.88;1.25;;;19.30;56.70;;;;;;5015587;28;20053;-61
2023/06/27 00:23:59;;;;;;;4.18;1.58;;;19.10;57.00;;;;;;5010446;28;20072;-62
2023/06/27 00:26:28;;;;;;;5.13;1.55;;;19.10;57.10;;;;;;5011831;28;20050;-61
2023/06/27 00:28:55;;;;;;;3.57;1.43;;;19.10;57.20;;;;;;5012600;28;20053;-62
2023/06/27 00:31:22;;;;;;;4.30;1.58;;;19.10;57.20;;;;;;4988548;28;20056;-61
2023/06/27 00:33:50;;;;;;;3.95;1.60;;;19.00;57.40;;;;;;5016049;28;20061;-62
2023/06/27 00:36:18;;;;;;;3.70;1.60;;;19.00;57.70;;;;;;4996099;28;20045;-62
2023/06/27 00:38:45;;;;;;;3.63;1.50;;;19.00;57.90;;;;;;5013967;28;20049;-61
2023/06/27 00:41:13;;;;;;;4.80;1.88;;;19.00;58.10;;;;;;5012857;28;20042;-61
2023/06/27 00:43:42;;;;;;;3.03;1.38;;;19.00;58.30;;;;;;4999078;28;20050;-62
2023/06/27 00:46:11;;;;;;;3.95;1.65;;;18.90;58.60;;;;;;4980166;28;20054;-60
2023/06/27 00:48:40;;;;;;;4.53;1.70;;;18.90;58.70;;;;;;4996896;28;20140;-61
2023/06/27 00:51:09;;;;;;;3.55;1.40;;;18.90;58.80;;;;;;4977740;28;20069;-60
2023/06/27 00:53:36;;;;;;;2.45;1.55;;;18.80;58.90;;;;;;5011669;28;20049;-62
2023/06/27 00:56:04;;;;;;;4.03;1.65;;;18.80;59.00;;;;;;5012056;28;20049;-62
2023/06/27 00:58:32;;;;;;;7.45;1.40;;;18.70;59.00;;;;;;5014835;28;20046;-62
2023/06/27 01:01:00;;;;;;;4.30;1.50;;;18.80;59.10;;;;;;4980612;28;20050;-62
2023/06/27 01:03:32;;;;;;;3.35;1.40;;;18.80;58.90;;;;;;5015003;28;20095;-62
2023/06/27 01:06:03;;;;;;;3.38;1.50;;;18.80;58.80;;;;;;5012417;28;20058;-62
2023/06/27 01:08:34;;;;;;;2.58;1.40;;;18.70;58.70;;;;;;5014051;28;20125;-63
2023/06/27 01:11:09;;;;;;;3.53;1.40;;;18.70;58.70;;;;;;5001148;28;20057;-62
2023/06/27 01:13:41;;;;;;;2.38;1.30;;;18.60;58.80;;;;;;5013418;28;20497;-62
2023/06/27 01:16:10;;;;;;;2.95;1.27;;;18.60;58.80;;;;;;5015524;28;20452;-61
2023/06/27 01:18:40;;;;;;;3.38;1.55;;;18.60;58.90;;;;;;5002293;28;20066;-63
2023/06/27 01:21:08;;;;;;;3.40;1.17;;;18.50;59.10;;;;;;5006317;28;20046;-60
2023/06/27 01:23:53;;;;;;;2.85;1.20;;;18.50;59.30;;;;;;4998187;28;20101;-61
2023/06/27 01:26:20;;;;;;;4.05;1.45;;;18.30;59.60;;;;;;5012862;28;20076;-63
2023/06/27 01:28:47;;;;;;;2.60;1.40;;;18.30;59.90;;;;;;5012374;28;20129;-62
2023/06/27 01:31:23;;;;;;;4.38;1.20;;;18.20;60.10;;;;;;5015427;28;20635;-61
2023/06/27 01:33:54;;;;;;;3.85;1.38;;;18.10;60.50;;;;;;5010581;28;20046;-61
2023/06/27 01:36:24;;;;;;;3.70;1.30;;;18.10;60.60;;;;;;4985472;28;20054;-64
2023/06/27 01:38:59;;;;;;;3.97;1.70;;;18.00;60.70;;;;;;4969475;28;20983;-62
2023/06/27 01:41:33;;;;;;;2.80;1.58;;;18.00;60.70;;;;;;5008979;28;20049;-61
2023/06/27 01:44:04;;;;;;;3.83;1.63;;;18.10;60.70;;;;;;5006259;28;20049;-62
2023/06/27 01:46:31;;;;;;;3.92;1.60;;;18.10;60.80;;;;;;5004687;28;20535;-63
2023/06/27 01:49:00;;;;;;;3.15;1.45;;;18.10;60.80;;;;;;4996802;28;20045;-63
2023/06/27 01:51:27;;;;;;;3.30;1.40;;;17.90;60.80;;;;;;4984351;28;20492;-62
2023/06/27 01:53:55;;;;;;;4.47;1.52;;;17.90;61.00;;;;;;5014947;28;20053;-62
2023/06/27 01:56:23;;;;;;;3.90;1.48;;;17.70;61.40;;;;;;5004596;28;20053;-62
2023/06/27 01:58:50;;;;;;;5.35;1.67;;;17.80;61.30;;;;;;5008265;28;20046;-61
2023/06/27 02:01:17;;;;;;;4.28;1.58;;;17.70;61.40;;;;;;4991854;28;20426;-62
2023/06/27 02:03:44;;;;;;;3.58;1.50;;;17.70;61.60;;;;;;4999902;28;20141;-62
2023/06/27 02:06:11;;;;;;;2.88;1.40;;;17.70;61.60;;;;;;4997692;28;20405;-60
2023/06/27 02:08:39;;;;;;;2.83;1.40;;;17.60;61.80;;;;;;4999777;28;20425;-63
2023/06/27 02:11:07;;;;;;;2.97;1.20;;;17.60;62.00;;;;;;5018234;28;20105;-62
2023/06/27 02:13:38;;;;;;;3.45;1.50;;;17.60;62.10;;;;;;5019783;28;20057;-61
2023/06/27 02:16:05;;;;;;;2.85;1.30;;;17.50;62.10;;;;;;4997544;28;20057;-62
2023/06/27 02:18:32;;;;;;;2.50;1.33;;;17.60;62.20;;;;;;5013865;28;20053;-61
2023/06/27 02:20:59;;;;;;;4.30;1.50;;;17.60;62.10;;;;;;5016247;28;20041;-61
2023/06/27 02:23:28;;;;;;;3.10;1.48;;;17.50;62.20;;;;;;5014138;28;20056;-61
2023/06/27 02:25:55;;;;;;;2.88;1.25;;;17.60;62.20;;;;;;5007024;28;20111;-60
2023/06/27 02:28:23;;;;;;;3.22;1.42;;;17.60;62.00;;;;;;4994399;28;20034;-62
2023/06/27 02:30:50;;;;;;;3.88;1.70;;;17.50;62.10;;;;;;5015075;28;20508;-61
2023/06/27 02:33:17;;;;;;;3.72;1.45;;;17.50;62.20;;;;;;5017385;28;20057;-63
2023/06/27 02:35:44;;;;;;;3.92;1.30;;;17.50;62.20;;;;;;4998074;28;20049;-62
2023/06/27 02:38:11;;;;;;;3.83;1.40;;;17.40;62.30;;;;;;5011460;28;20046;-62
2023/06/27 02:40:37;;;;;;;5.13;1.45;;;17.40;62.40;;;;;;5017717;28;20519;-63
2023/06/27 02:43:06;;;;;;;3.03;1.40;;;17.50;62.30;;;;;;5015126;28;20109;-62
2023/06/27 02:45:35;;;;;;;2.33;1.30;;;17.50;62.40;;;;;;4989383;28;20050;-62
2023/06/27 02:48:02;;;;;;;4.95;1.60;;;17.50;62.40;;;;;;5005251;28;20050;-62
2023/06/27 02:50:29;;;;;;;3.55;1.48;;;17.40;62.70;;;;;;5009913;28;20133;-61
2023/06/27 02:52:56;;;;;;;3.28;1.52;;;17.20;62.80;;;;;;5013086;28;20757;-64
2023/06/27 02:55:23;;;;;;;2.65;1.33;;;17.20;63.10;;;;;;4991929;28;20046;-63
2023/06/27 02:57:51;;;;;;;3.28;1.25;;;17.20;63.10;;;;;;4999403;28;20080;-62
2023/06/27 03:00:20;;;;;;;4.13;1.38;;;17.20;63.10;;;;;;4997006;28;20154;-63
2023/06/27 03:02:48;;;;;;;4.82;1.55;;;17.20;63.10;;;;;;5012441;28;20045;-62
2023/06/27 03:05:16;;;;;;;4.43;1.73;;;17.20;63.10;;;;;;5013581;28;20145;-62
2023/06/27 03:07:44;;;;;;;3.42;1.10;;;17.20;63.30;;;;;;4998975;28;20082;-61
2023/06/27 03:10:11;;;;;;;4.70;1.55;;;17.10;63.60;;;;;;4992683;28;20148;-63
2023/06/27 03:12:41;;;;;;;3.05;1.40;;;17.00;63.70;;;;;;4997729;28;20058;-62
2023/06/27 03:15:08;;;;;;;4.55;1.70;;;17.00;63.90;;;;;;4994994;28;20513;-61
2023/06/27 03:17:35;;;;;;;3.67;1.50;;;17.00;64.00;;;;;;5015514;28;20061;-62
2023/06/27 03:20:04;;;;;;;2.78;1.58;;;17.00;64.00;;;;;;5012419;28;20124;-62
2023/06/27 03:22:31;;;;;;;3.58;1.40;;;17.00;64.10;;;;;;4999732;28;20064;-62
2023/06/27 03:24:59;;;;;;;3.47;1.50;;;17.00;64.00;;;;;;4999439;28;20042;-63
2023/06/27 03:27:26;;;;;;;2.80;1.50;;;17.00;64.00;;;;;;4996565;28;20120;-62
2023/06/27 03:29:53;;;;;;;2.22;1.30;;;16.90;64.30;;;;;;5015556;28;20383;-59
2023/06/27 03:32:21;;;;;;;2.92;1.40;;;17.00;64.50;;;;;;4974870;28;20056;-62
2023/06/27 03:34:48;;;;;;;2.35;1.10;;;17.00;64.50;;;;;;4995795;28;20061;-63
2023/06/27 03:37:17;;;;;;;2.47;1.27;;;17.00;64.50;;;;;;4994394;28;20509;-62
2023/06/27 03:39:44;;;;;;;3.53;1.48;;;16.90;64.70;;;;;;5004889;28;20132;-63
2023/06/27 03:42:11;;;;;;;4.32;1.27;;;16.90;64.90;;;;;;5008816;28;20049;-60
2023/06/27 03:44:38;;;;;;;5.70;1.42;;;16.90;64.90;;;;;;5006323;28;20091;-62
2023/06/27 03:47:05;;;;;;;3.08;1.40;;;16.90;64.80;;;;;;4992451;28;20132;-63
2023/06/27 03:49:33;;;;;;;3.65;1.60;;;16.90;65.00;;;;;;5000461;28;20089;-63
2023/06/27 03:52:00;;;;;;;2.83;1.40;;;16.90;65.10;;;;;;4993614;28;20053;-62
2023/06/27 03:54:28;;;;;;;2.85;1.30;;;16.90;65.20;;;;;;5010582;28;20049;-63
2023/06/27 03:56:55;;;;;;;3.88;1.67;;;16.90;65.10;;;;;;5013451;28;20048;-62
2023/06/27 03:59:24;;;;;;;3.38;1.60;;;16.90;65.00;;;;;;5016382;28;20487;-60
2023/06/27 04:01:52;;;;;;;3.40;1.65;;;16.90;65.10;;;;;;4999374;28;20042;-62
2023/06/27 04:04:19;;;;;;;3.53;1.55;;;16.80;65.20;;;;;;5015328;28;20053;-63
2023/06/27 04:06:46;;;;;;;3.58;1.80;;;16.80;65.20;;;;;;5005266;28;20079;-61
2023/06/27 04:09:13;;;;;;;3.35;1.50;;;16.80;65.30;;;;;;5003252;28;20058;-61
2023/06/27 04:11:41;;;;;;;3.33;1.80;;;16.90;65.40;;;;;;4979605;28;20056;-62
2023/06/27 04:14:09;;;;;;;3.30;1.42;;;16.90;65.40;;;;;;4999916;28;20535;-61
2023/06/27 04:16:39;;;;;;;3.58;1.40;;;16.90;65.40;;;;;;4980551;28;20073;-63
2023/06/27 04:19:06;;;;;;;4.20;1.75;;;16.90;65.40;;;;;;4992880;28;20038;-63
2023/06/27 04:21:33;;;;;;;3.85;1.80;;;16.90;65.40;;;;;;5000368;28;20489;-63
2023/06/27 04:24:00;;;;;;;3.05;1.55;;;16.90;65.30;;;;;;5007997;28;20046;-61
2023/06/27 04:26:27;;;;;;;2.80;1.55;;;16.90;65.30;;;;;;5014552;28;20052;-62
2023/06/27 04:28:56;;;;;;;3.83;1.40;;;17.10;64.90;;;;;;5012760;28;20049;-62
2023/06/27 04:31:24;;;;;;;3.78;1.77;;;17.10;64.80;;;;;;5007294;28;20099;-61
2023/06/27 04:33:55;;;;;;;4.35;1.48;;;17.10;64.50;;;;;;5001384;28;20129;-61
2023/06/27 04:36:24;;;;;;;3.03;1.13;;;17.10;64.40;;;;;;5002739;28;20050;-62
2023/06/27 04:38:51;;;;;;;4.07;1.60;;;17.10;64.50;;;;;;5010383;28;20161;-63
2023/06/27 04:41:18;;;;;;;3.72;1.67;;;17.10;64.60;;;;;;5014040;28;20544;-61
2023/06/27 04:43:45;;;;;;;3.70;1.80;;;17.20;64.80;;;;;;5015825;28;20073;-63
2023/06/27 04:46:14;;;;;;;3.67;1.40;;;17.10;64.80;;;;;;5013711;28;20773;-63
2023/06/27 04:48:42;;;;;;;4.22;1.50;;;17.10;64.80;;;;;;5014364;28;20061;-60
2023/06/27 04:51:09;;;;;;;4.15;1.60;;;17.20;64.70;;;;;;5013898;28;20148;-62
2023/06/27 04:53:36;;;;;;;3.53;1.77;;;17.20;64.70;;;;;;5014321;28;20038;-62
2023/06/27 04:56:02;;;;;;;3.88;1.67;;;17.10;64.70;;;;;;5013477;28;20103;-62
2023/06/27 04:58:29;;;;;;;5.13;1.80;;;17.20;64.70;;;;;;5002710;28;20052;-60
2023/06/27 05:00:56;;;;;;;3.83;1.40;;;17.20;64.60;;;;;;4997677;28;20090;-63
2023/06/27 05:03:24;;;;;;;3.05;1.30;;;17.20;64.60;;;;;;5016951;28;20530;-62
2023/06/27 05:05:51;;;;;;;2.97;1.60;;;17.20;64.50;;;;;;5013267;28;20049;-60
2023/06/27 05:08:18;;;;;;;2.88;1.60;;;17.30;64.20;;;;;;5016620;28;20046;-61
2023/06/27 05:10:46;;;;;;;2.83;1.40;;;17.30;64.20;;;;;;5010063;28;20054;-62
2023/06/27 05:13:12;;;;;;;5.35;1.80;;;17.30;64.20;;;;;;5015582;28;20045;-62
2023/06/27 05:15:39;;;;;;;3.65;1.85;;;17.30;64.10;;;;;;5013069;28;20390;-61
2023/06/27 05:18:26;;;;;;;4.43;1.90;;;17.20;64.30;;;;;;5012912;28;20133;-59
2023/06/27 05:20:54;;;;;;;3.65;1.60;;;17.20;64.50;;;;;;5012871;28;20053;-62
2023/06/27 05:23:21;;;;;;;5.43;2.15;;;17.20;64.40;;;;;;5013740;28;20045;-60
2023/06/27 05:25:49;;;;;;;3.95;1.88;;;17.20;64.50;;;;;;5011065;28;20088;-61
2023/06/27 05:28:16;;;;;;;4.50;1.90;;;17.20;64.50;;;;;;5009136;28;20468;-62
2023/06/27 05:30:43;;;;;;;5.35;2.10;;;17.20;64.80;;;;;;5017804;28;20050;-62
2023/06/27 05:33:10;;;;;;;3.38;1.75;;;17.20;64.80;;;;;;5015788;28;20137;-62
2023/06/27 05:35:38;;;;;;;4.93;1.73;;;17.20;64.60;;;;;;5018266;28;20045;-62
2023/06/27 05:38:06;;;;;;;4.47;1.95;;;17.20;64.80;;;;;;5014790;28;20172;-63
2023/06/27 05:40:33;;;;;;;4.53;1.73;;;17.30;64.80;;;;;;5013134;28;20046;-61
2023/06/27 05:43:00;;;;;;;5.13;2.10;;;17.40;64.50;;;;;;5015189;28;20439;-61
2023/06/27 05:45:27;;;;;;;3.67;1.80;;;17.40;64.50;;;;;;5015039;28;20069;-63
2023/06/27 05:47:53;;;;;;;5.28;2.40;;;17.50;64.50;;;;;;5015240;28;20132;-62
2023/06/27 05:50:20;;;;;;;5.65;2.03;;;17.50;64.20;;;;;;5016955;28;20235;-63
2023/06/27 05:52:49;;;;;;;5.45;1.80;;;17.50;64.30;;;;;;5003928;28;20493;-61
2023/06/27 05:55:16;;;;;;;4.95;2.08;;;17.50;64.30;;;;;;5017727;28;20198;-61
2023/06/27 05:57:42;;;;;;;4.05;2.13;;;17.60;64.20;;;;;;4993260;28;20052;-63
2023/06/27 06:00:13;;;;;;;5.00;2.20;;;17.70;64.00;;;;;;5016204;28;20056;-63
2023/06/27 06:02:42;;;;;;;4.55;1.95;;;17.70;63.90;;;;;;5019548;28;20045;-63
2023/06/27 06:05:11;;;;;;;4.10;1.80;;;17.80;63.50;;;;;;5019117;28;20049;-61
2023/06/27 06:07:41;;;;;;;4.82;2.20;;;17.90;63.10;;;;;;5019296;28;20046;-62
2023/06/27 06:10:10;;;;;;;4.50;1.83;;;17.90;63.00;;;;;;5015239;28;20050;-63
2023/06/27 06:12:38;;;;;;;4.00;2.13;;;17.90;62.90;;;;;;5016284;28;20046;-62
2023/06/27 06:15:06;;;;;;;5.95;2.50;;;17.90;62.80;;;;;;5014895;28;20097;-61
2023/06/27 06:17:33;;;;;;;4.72;2.78;;;17.90;62.90;;;;;;5015478;28;20054;-63
2023/06/27 06:19:59;;;;;;;5.22;2.35;;;17.90;62.80;;;;;;5019532;28;20053;-61
2023/06/27 06:22:26;;;;;;;4.53;2.60;;;18.00;62.90;;;;;;5018985;28;20054;-62
2023/06/27 06:24:53;;;;;;;4.38;2.30;;;17.90;62.90;;;;;;5018023;28;20056;-63
2023/06/27 06:27:22;;;;;;;4.57;2.60;;;17.90;62.90;;;;;;5012952;28;20134;-61
2023/06/27 06:29:49;;;;;;;6.43;2.63;;;18.00;62.70;;;;;;5000496;28;20065;-63
2023/06/27 06:32:16;;;;;;;5.05;2.25;;;18.10;62.40;;;;;;5014114;28;20489;-61
2023/06/27 06:34:43;;;;;;;4.78;2.40;;;18.20;61.80;;;;;;5017341;28;20041;-63
2023/06/27 06:37:10;;;;;;;4.68;2.58;;;18.40;61.70;;;;;;5017593;28;20124;-62
2023/06/27 06:39:37;;;;;;;5.40;2.60;;;18.40;60.50;;;;;;5018193;28;20414;-62
2023/06/27 06:42:04;;;;;;;5.82;2.45;;;18.50;61.20;;;;;;5015303;28;20092;-62
2023/06/27 06:44:32;;;;;;;4.90;2.15;;;18.60;61.00;;;;;;5019449;28;20050;-62
2023/06/27 06:46:59;;;;;;;5.60;2.30;;;18.80;60.90;;;;;;5009836;28;20057;-62
2023/06/27 06:49:26;;;;;;;6.65;2.38;;;18.90;60.10;;;;;;5016930;28;20451;-61
2023/06/27 06:51:53;;;;;;;4.38;1.90;;;19.10;59.50;;;;;;5016580;28;20141;-61
2023/06/27 06:54:20;;;;;;;5.40;2.08;;;19.20;59.20;;;;;;5017229;28;20073;-61
2023/06/27 06:56:49;;;;;;;4.65;2.00;;;19.30;59.70;;;;;;5016733;28;20123;-61
2023/06/27 06:59:16;;;;;;;5.57;2.78;;;19.40;59.50;;;;;;5012847;28;20046;-61
2023/06/27 07:01:44;;;;;;;5.65;2.10;;;19.60;59.10;;;;;;5015179;28;20120;-61
2023/06/27 07:04:11;;;;;;;5.75;1.90;;;19.70;58.60;;;;;;5013848;28;20054;-59
2023/06/27 07:06:38;;;;;;;4.53;1.73;;;19.60;58.60;;;;;;5017060;28;20075;-60
2023/06/27 07:09:05;;;;;;;5.28;1.90;;;19.60;58.40;;;;;;5007611;28;20046;-62
2023/06/27 07:11:32;;;;;;;5.00;1.80;;;19.70;58.20;;;;;;5017601;28;20144;-62
2023/06/27 07:13:59;;;;;;;4.13;1.90;;;19.90;58.20;;;;;;5016168;28;20846;-63
2023/06/27 07:16:27;;;;;;;5.45;2.05;;;20.10;57.40;;;;;;5015606;28;20070;-62
2023/06/27 07:18:55;;;;;;;4.60;1.92;;;20.20;56.80;;;;;;5013695;28;20054;-62
2023/06/27 07:21:22;;;;;;;4.72;1.75;;;20.30;56.40;;;;;;4993581;28;20493;-62
2023/06/27 07:23:49;;;;;;;5.15;1.55;;;20.50;56.10;;;;;;5015416;28;20116;-62
2023/06/27 07:26:16;;;;;;;3.15;1.65;;;20.40;55.70;;;;;;5017598;28;20137;-63
2023/06/27 07:28:43;;;;;;;4.80;1.60;;;20.60;55.20;;;;;;5017149;28;20056;-62
2023/06/27 07:31:10;;;;;;;5.57;1.90;;;20.70;54.60;;;;;;5012526;28;20049;-60
2023/06/27 07:33:37;;;;;;;5.45;1.52;;;20.90;54.80;;;;;;4997088;28;20068;-62
2023/06/27 07:36:05;;;;;;;4.43;1.80;;;21.10;54.50;;;;;;5017135;28;20072;-62
2023/06/27 07:38:32;;;;;;;4.40;1.83;;;21.10;54.20;;;;;;5018585;28;20052;-62
2023/06/27 07:40:59;;;;;;;6.32;1.75;;;21.30;53.50;;;;;;5016798;28;20060;-61
2023/06/27 07:43:26;;;;;;;2.72;1.65;;;21.50;53.60;;;;;;5012929;28;20042;-62
2023/06/27 07:45:53;;;;;;;5.25;1.38;;;21.60;53.10;;;;;;5017227;28;20481;-62
2023/06/27 07:48:20;;;;;;;5.03;1.77;;;21.90;52.60;;;;;;5014437;28;20512;-62
2023/06/27 07:50:47;;;;;;;4.75;1.80;;;22.00;52.50;;;;;;5015662;28;20049;-63
2023/06/27 07:53:16;;;;;;;3.70;1.63;;;21.90;52.70;;;;;;5015911;28;20054;-62
2023/06/27 07:55:43;;;;;;;;;;;22.10;52.30;;;;;;5018928;28;20060;-63
2023/06/27 07:58:10;;;;;;;3.38;1.50;;;22.20;52.10;;;;;;5014557;28;19937;-63
2023/06/27 08:00:38;;;;;;;3.20;1.40;;;22.20;51.80;;;;;;5012873;28;20056;-70
2023/06/27 08:03:06;;;;;;;4.38;1.50;;;22.40;51.60;;;;;;5015135;28;20064;-71
2023/06/27 08:05:34;;;;;;;3.08;1.60;;;22.60;51.40;;;;;;5013625;28;20049;-71
2023/06/27 08:08:02;;;;;;;3.92;1.58;;;22.60;51.20;;;;;;5014038;28;20049;-70
2023/06/27 08:10:30;;;;;;;3.38;1.63;;;22.70;50.50;;;;;;5017078;28;20045;-71
2023/06/27 08:12:57;;;;;;;3.42;1.38;;;22.90;50.20;;;;;;5015762;28;20061;-72
2023/06/27 08:15:24;;;;;;;3.00;1.27;;;23.10;50.00;;;;;;5015305;28;20603;-71
2023/06/27 08:17:51;;;;;;;4.35;1.40;;;23.50;49.20;;;;;;5012721;28;20049;-71
2023/06/27 08:20:18;;;;;;;5.93;1.50;;;23.60;48.00;;;;;;5014892;28;20041;-70
2023/06/27 08:22:45;;;;;;;2.38;0.90;;;23.70;47.80;;;;;;5012397;28;20075;-71
2023/06/27 08:25:12;;;;;;;3.47;1.30;;;23.80;47.80;;;;;;5015643;28;20077;-72
2023/06/27 08:27:40;;;;;;;3.95;1.33;;;23.90;47.00;;;;;;5016526;28;20053;-70
2023/06/27 08:30:08;;;;;;;3.60;1.55;;;23.80;46.40;;;;;;5015442;28;20061;-70
2023/06/27 08:32:35;;;;;;;2.58;1.20;;;24.10;46.40;;;;;;5013338;28;21498;-70
2023/06/27 08:35:05;;;;;;;4.30;1.27;;;24.30;45.90;;;;;;5011523;28;20050;-70
2023/06/27 08:37:32;;;;;;;2.78;1.17;;;24.10;45.90;;;;;;5016168;28;20046;-69
2023/06/27 08:39:59;;;;;;;3.90;1.25;;;23.80;45.70;;;;;;5013270;28;20045;-69
2023/06/27 08:42:27;;;;;;;2.72;1.13;;;23.60;45.00;;;;;;5008716;28;20037;-71
2023/06/27 08:44:56;;;;;;;3.33;1.33;;;23.20;45.30;;;;;;5014979;28;20069;-70
2023/06/27 08:47:26;;;;;;;3.38;1.40;;;23.30;45.50;;;;;;5015331;28;20559;-70
2023/06/27 08:50:03;;;;;;;3.63;1.40;;;23.60;45.00;;;;;;5013441;28;20064;-70
2023/06/27 08:52:32;;;;;;;3.95;1.25;;;23.60;44.10;;;;;;4997206;28;20042;-70
2023/06/27 08:54:59;;;;;;;4.53;1.40;;;23.50;44.30;;;;;;5004047;28;20103;-69
2023/06/27 08:57:30;;;;;;;3.55;1.30;;;23.60;44.20;;;;;;5015033;28;20125;-70
2023/06/27 09:00:09;;;;;;;4.55;1.42;;;23.50;43.80;;;;;;5008812;28;20040;-69
2023/06/27 09:02:37;;;;;;;4.87;1.30;;;23.30;44.10;;;;;;5015986;28;20092;-69
2023/06/27 09:05:06;;;;;;;4.13;1.60;;;23.30;44.10;;;;;;5018424;28;20068;-69
2023/06/27 09:07:34;;;;;;;2.42;1.17;;;23.60;44.30;;;;;;5019150;28;20050;-72
2023/06/27 09:10:02;;;;;;;5.38;1.30;;;23.80;44.20;;;;;;5019268;28;20070;-69
2023/06/27 09:12:30;;;;;;;4.88;1.35;;;23.70;44.60;;;;;;5015779;28;20050;-69
2023/06/27 09:14:58;;;;;;;2.58;1.40;;;23.50;44.40;;;;;;5017378;28;20439;-69
2023/06/27 09:17:25;;;;;;;3.78;1.65;;;23.40;44.40;;;;;;5017563;28;20137;-69
2023/06/27 09:19:52;;;;;;;5.07;1.73;;;23.50;44.60;;;;;;4996178;28;20491;-69
2023/06/27 09:22:19;;;;;;;3.72;1.48;;;23.70;44.40;;;;;;5014067;28;20391;-69
2023/06/27 09:24:47;;;;;;;3.17;1.48;;;23.60;44.50;;;;;;4995600;28;20054;-70
2023/06/27 09:27:35;;;;;;;5.18;1.58;;;23.60;43.50;;;;;;5000389;28;20137;-70
2023/06/27 09:30:04;;;;;;;3.92;1.80;;;23.70;43.60;;;;;;4986593;28;20093;-71
2023/06/27 09:32:31;;;;;;;3.55;1.73;;;24.10;43.20;;;;;;4999381;28;20042;-69
2023/06/27 09:35:01;;;;;;;4.18;1.63;;;24.10;42.90;;;;;;5015199;28;20223;-70
2023/06/27 09:37:31;;;;;;;3.53;1.30;;;24.10;42.70;;;;;;5005881;28;20033;-69
2023/06/27 09:39:58;;;;;;;3.00;1.40;;;24.30;42.70;;;;;;5019203;28;20069;-68
2023/06/27 09:42:25;;;;;;;3.10;1.40;;;24.60;42.50;;;;;;5018968;28;20049;-70
2023/06/27 09:44:51;;;;;;;3.72;1.45;;;24.80;42.00;;;;;;5018147;28;20049;-71
2023/06/27 09:47:25;;;;;;;2.65;1.35;;;25.00;41.30;;;;;;5014372;28;20058;-70
2023/06/27 09:49:53;;;;;;;5.88;1.95;;;25.10;41.30;;;;;;5017477;28;20050;-70
2023/06/27 09:52:20;;;;;;;4.38;2.10;;;25.20;41.80;;;;;;5016815;28;20037;-69
2023/06/27 09:54:47;;;;;;;3.78;1.90;;;25.10;41.30;;;;;;5018036;28;20053;-70
2023/06/27 09:57:16;;;;;;;2.75;1.45;;;25.10;40.90;;;;;;5017127;28;20141;-70
2023/06/27 09:59:43;;;;;;;3.03;1.48;;;25.10;40.40;;;;;;5017943;28;20054;-69
2023/06/27 10:02:14;;;;;;;2.03;1.15;;;25.00;41.00;;;;;;5017255;28;20061;-69
2023/06/27 10:04:42;;;;;;;3.50;1.40;;;24.80;41.70;;;;;;5017836;28;20069;-70
2023/06/27 10:07:13;;;;;;;2.93;1.30;;;24.60;42.20;;;;;;5007784;28;20038;-70
2023/06/27 10:09:40;;;;;;;3.38;1.50;;;24.50;42.50;;;;;;5016015;28;20096;-69
2023/06/27 10:12:08;;;;;;;4.10;1.40;;;24.20;42.40;;;;;;5018514;28;20045;-70
2023/06/27 10:14:35;;;;;;;2.78;1.35;;;24.10;42.80;;;;;;5018345;28;20045;-70
2023/06/27 10:17:03;;;;;;;3.25;1.52;;;24.10;43.30;;;;;;5016409;28;20489;-69
2023/06/27 10:19:34;;;;;;;2.15;1.20;;;24.20;43.10;;;;;;5007686;28;20108;-70
2023/06/27 10:22:04;;;;;;;2.65;1.20;;;24.50;43.00;;;;;;5018082;28;20053;-71
2023/06/27 10:24:33;;;;;;;2.92;1.20;;;24.90;42.60;;;;;;5017478;28;20112;-70
2023/06/27 10:27:04;;;;;;;2.92;1.40;;;25.00;42.20;;;;;;4997066;28;20081;-70
2023/06/27 10:29:31;;;;;;;3.88;1.55;;;25.10;41.80;;;;;;5010456;28;20056;-69
2023/06/27 10:31:59;;;;;;;3.85;1.60;;;25.10;41.30;;;;;;5018731;28;20057;-69
2023/06/27 10:34:28;;;;;;;2.63;1.48;;;25.10;40.90;;;;;;5017265;28;20053;-70
2023/06/27 10:36:59;;;;;;;3.25;1.70;;;25.10;41.30;;;;;;5020282;28;20049;-71
2023/06/27 10:39:31;;;;;;;4.15;2.38;;;25.10;41.40;;;;;;4995589;28;20088;-69
2023/06/27 10:42:03;;;;;;;4.10;2.03;;;25.00;41.20;;;;;;4996337;28;20074;-69
2023/06/27 10:44:31;;;;;;;4.40;2.15;;;25.10;41.20;;;;;;4999948;28;20042;-70
2023/06/27 10:47:27;;;;;;;3.47;1.70;;;25.20;41.40;;;;;;4997293;28;20080;-69
2023/06/27 10:49:55;;;;;;;4.28;1.55;;;25.20;41.90;;;;;;4996152;28;20046;-70
2023/06/27 10:52:23;;;;;;;3.85;1.60;;;25.10;41.50;;;;;;5016734;28;20045;-69
2023/06/27 10:55:22;;;;;;;3.10;1.60;;;25.00;41.90;;;;;;5015941;28;20065;-70
2023/06/27 10:57:51;;;;;;;2.92;1.42;;;25.00;42.00;;;;;;5016511;28;20152;-70
2023/06/27 11:00:24;;;;;;;3.10;1.60;;;25.10;41.90;;;;;;5018942;28;20069;-70
2023/06/27 11:02:54;;;;;;;4.07;1.38;;;25.00;41.70;;;;;;5017796;28;20049;-69
2023/06/27 11:05:36;;;;;;;4.32;1.90;;;24.90;41.90;;;;;;4998923;28;20153;-70
2023/06/27 11:08:04;;;;;;;3.25;1.30;;;24.90;41.80;;;;;;5014223;28;20076;-69
2023/06/27 11:10:32;;;;;;;4.53;1.70;;;24.90;41.60;;;;;;5016382;28;20417;-69
2023/06/27 11:13:16;;;;;;;2.58;1.50;;;24.90;41.40;;;;;;5016560;28;20057;-69
2023/06/27 11:15:44;;;;;;;4.10;1.52;;;25.10;41.40;;;;;;5015874;28;20153;-69
2023/06/27 11:18:14;;;;;;;5.10;1.42;;;25.20;41.00;;;;;;5017880;28;20071;-69
2023/06/27 11:20:41;;;;;;;4.65;1.67;;;25.30;40.80;;;;;;5015902;28;20076;-70
2023/06/27 11:23:11;;;;;;;5.07;2.22;;;25.50;40.60;;;;;;5012493;28;20125;-71
2023/06/27 11:25:42;;;;;;;10.32;8.30;;;25.60;40.40;;;;;;5016495;28;20046;-70
2023/06/27 11:28:10;;;;;;;5.97;4.40;;;25.70;40.00;;;;;;5012865;28;20104;-70
2023/06/27 11:30:38;;;;;;;6.60;3.00;;;25.50;40.00;;;;;;5017910;28;20132;-70
2023/06/27 11:33:05;;;;;;;4.63;2.20;;;25.50;40.30;;;;;;5016538;28;20046;-70
2023/06/27 11:35:32;;;;;;;3.83;2.00;;;25.50;40.50;;;;;;5015699;28;20052;-70
2023/06/27 11:38:00;;;;;;;6.60;3.83;;;25.60;40.40;;;;;;5017687;28;20061;-69
2023/06/27 11:40:27;;;;;;;6.40;4.38;;;25.70;40.20;;;;;;5013210;28;20056;-69
2023/06/27 11:43:02;;;;;;;6.70;4.47;;;25.80;39.80;;;;;;5012147;28;20045;-70
2023/06/27 11:45:31;;;;;;;5.80;3.10;;;25.60;39.20;;;;;;4997819;28;20133;-69
2023/06/27 11:47:58;;;;;;;6.45;2.97;;;25.50;39.20;;;;;;4996223;28;20041;-71
2023/06/27 11:50:25;;;;;;;4.93;2.30;;;25.50;38.90;;;;;;5017057;28;20065;-70
2023/06/27 11:52:53;;;;;;;4.53;2.53;;;25.30;38.70;;;;;;5017914;28;20115;-70
2023/06/27 11:55:20;;;;;;;4.38;2.50;;;25.40;39.30;;;;;;5016044;28;20046;-70
2023/06/27 11:57:48;;;;;;;6.18;2.58;;;25.50;39.70;;;;;;5015337;28;20050;-69
2023/06/27 12:00:20;;;;;;;3.73;1.63;;;25.60;39.60;;;;;;5017999;28;20053;-70
2023/06/27 12:02:48;;;;;;;3.63;1.90;;;25.60;39.30;;;;;;5010439;28;20473;-70
2023/06/27 12:05:18;;;;;;;3.33;1.93;;;25.60;39.40;;;;;;5002922;28;20057;-70
2023/06/27 12:07:56;;;;;;;4.30;2.20;;;25.70;39.00;;;;;;5018550;28;20533;-69
2023/06/27 12:10:23;;;;;;;4.97;2.65;;;25.80;39.30;;;;;;5014890;28;20077;-69
2023/06/27 12:12:51;;;;;;;3.60;2.20;;;25.90;39.70;;;;;;5018277;28;20042;-70
2023/06/27 12:15:19;;;;;;;5.72;2.72;;;26.00;39.00;;;;;;5013967;28;20107;-70
2023/06/27 12:17:57;;;;;;;5.10;2.17;;;25.90;39.20;;;;;;5010730;28;20137;-70
2023/06/27 12:20:24;;;;;;;3.88;1.90;;;25.90;38.60;;;;;;4998137;28;20049;-70
2023/06/27 12:22:51;;;;;;;3.58;1.58;;;26.00;39.20;;;;;;5009051;28;20489;-70
2023/06/27 12:25:17;;;;;;;4.63;1.67;;;26.00;38.70;;;;;;5015219;28;20046;-70
2023/06/27 12:27:44;;;;;;;3.58;1.60;;;26.00;38.20;;;;;;5014383;28;20046;-69
2023/06/27 12:30:14;;;;;;;2.55;1.30;;;26.10;38.30;;;;;;5016664;28;20060;-69
2023/06/27 12:32:43;;;;;;;2.85;1.48;;;26.30;38.40;;;;;;4997701;28;20057;-69
2023/06/27 12:35:10;;;;;;;3.08;1.30;;;26.30;38.50;;;;;;5012711;28;20049;-70
2023/06/27 12:37:44;;;;;;;3.17;1.52;;;26.50;38.50;;;;;;5010107;28;20136;-70
2023/06/27 12:40:12;;;;;;;2.40;1.27;;;26.60;38.20;;;;;;5017006;28;20100;-69
2023/06/27 12:42:39;;;;;;;3.85;1.52;;;26.60;38.20;;;;;;5014164;28;20058;-70
2023/06/27 12:45:06;;;;;;;3.63;1.50;;;26.70;37.50;;;;;;5015850;28;20052;-69
2023/06/27 12:47:34;;;;;;;4.38;1.58;;;26.80;37.50;;;;;;5015228;28;20473;-69
2023/06/27 12:50:03;;;;;;;2.10;1.20;;;26.80;37.20;;;;;;5015521;28;20053;-70
2023/06/27 12:52:30;;;;;;;5.78;1.75;;;26.80;37.70;;;;;;5001968;28;20048;-70
2023/06/27 12:54:57;;;;;;;4.47;1.52;;;26.80;37.20;;;;;;5012129;28;20058;-70